Impacts TAF Board INFO
FOR SITUATIONAL AWARENESS. NOT TO BE USED FOR FLIGHT PLANNING PURPOSES.
IDs:

KLAS - Las Vegas/McCarran I, NV, US

Issued at 1720 UTC 18 Dec 2017
Updated at 2015 UTC 18 Dec 2017
Potential Impact None Slight Moderate High
Time<<19/21Z 19/22Z 19/23Z 20/00Z 20/01Z 20/02Z 20/03Z 20/04Z 20/05Z 20/06Z 20/07Z 20/08Z 20/09Z
Type PRVL PRVL PRVL
VIS >6 >6 >6
CIG -- -- --
Cover SCT SCT SCT
FltCat VFR VFR VFR
WX -- -- --
WDir VRB VRB VRB
WSpd 5 5 5
WGst -- -- --

Raw TAF
KLAS 181720Z 1818/1924 VRB05KT P6SM SCT250
  FM190300 21006KT P6SM SCT250
  FM191700 VRB05KT P6SM SCT250


METAR Board
Radar Display
Forecast Discussion

FOR SITUATIONAL AWARENESS. NOT TO BE USED FOR FLIGHT PLANNING PURPOSES.